Aérodrome :
LOGIN :

S'inscrire | Disclaimer

   EN    FR    IT 

 










Légende :    VFR   VFR Marginal   IFR   IFR Intensif   IFR Très Intensif
Visi : 
Plafond : 
>= 8 km
>= 3000ft
5 à 8 km
1000 à 3000 ft
1500m à 5 km
500 à 1000 ft
800 à 1500m
200 à 500 ft
< 800m
< 200 ft
Symboles :   Orages  Brouillard  Fortes neiges  Fortes précipitations  Vent > 20 kt
SIGMETs :   Divers  Orages  Givrage  Turbulence  Onde Orograph.  Cendres Volcan.







- Altitude de l'aérodrome : 13 ft
- Code IATA : LYX
- Voir les cartes d'approche


EGMD - Lydd

DERNIER METAR :
  • 152250Z AUTO 21018KT 9999 BKN007/// BKN011/// OVC015/// 09/08 Q1005

METARs EXPIRÉS :
  • 152220Z AUTO 19018KT 8000 BKN007/// OVC014/// 08/08 Q1005
  • 152150Z AUTO 19019KT 9999 OVC005/// 07/07 Q1005
  • 152120Z AUTO 19022KT 9000 -RA OVC005/// 07/06 Q1005 RERA
  • 152050Z AUTO 18023KT 5000 -RA OVC005/// 06/06 Q1005 RERA
  • 152020Z AUTO 18026KT 8000 -RA OVC005/// 06/05 Q1005

TAF TAF EGMD
Valide du 15 à 21h jusqu'au 16 à 06h UTC


152004Z 1521/1606 17022KT 6000 -RA BKN007
BECMG 1521/1523 24012KT 9999 NSW FEW025
TEMPO 1521/1601 25015G25KT
ATIS : +44 1797 322 422
Pas de NOTAMs connus pour ce terrain.
4 SIGMETs publiés pour la FIR London (EGTT) :
 
Turbulence forte
EGTT SIGMET 17 VALID 152300/160230 EGRR
EGTT LONDON FIR SEV TURB FCST WI N5500 W00530 - N5500 E00500 - N5403 E00411 - N5257 W00316 - N5424 W00530 - N5500 W00530 SFC/FL060 MOV NE 20KT NC=
Givrage fort
EGTT SIGMET 16 VALID 152230/160230 EGRR
EGTT LONDON FIR SEV ICE FCST WI N5350 E00316 - N5323 E00148 - N5500 W00012 - N5500 E00203 - N5350 E00316 FL030/080 MOV NE 15KT WKN=
Onde orographique forte
EGTT SIGMET 15 VALID 152000/152300 EGRR
EGTT LONDON FIR SEV MTW FCST WI N5500 W00128 - N5144 W00236 - N5154 W00504 - N5427 W00341 - N5500 W00434 - N5500 W00128 FL030/250 STNR WKN=
Turbulence forte
EGTT SIGMET 14 VALID 152000/152300 EGRR
EGTT LONDON FIR SEV TURB FCST WI N5220 W00530 - N5500 W00530 - N5500 E00304 - N5318 E00133 - N5011 W00526 - N5212 W00546 - N5220 W00530 SFC/FL060 MOV NE 30KT NC=



MET'MAP, la Météo Aéronautique d'un coup d'oeil ! - Copyright ORBIFLY Décembre 2007 - Disclaimer

ORBIFLY MET'MAP TEAM :

Programmation & Développement : Alexandra Zaïnal
Conception & Développement : Baudouin d'Aumeries
Co-Programmation & Développement : Marc-Olivier Méhu
Soutien technique & logistique : Manuel Goepfert

Contact : metmap@orbifly.com




SOURCES & CREDITS :

   NOAA